Time;durP1;ratioP1;P1;durP2;ratioP2;P2;SDS_P1;SDS_P2;PMS_P1;PMS_P2;Temp;Humidity;BMP_temperature;BMP_pressure;BME280_temperature;BME280_humidity;BME280_pressure;Samples;Min_cycle;Max_cycle;Signal;HPM_P1;HPM_P2
2022/02/22 00:02:14;;;;;;;2.13;1.23;;;0.70;97.00;0.70;95797.00;;;;5122362;27;20445;-85
2022/02/22 00:05:03;;;;;;;1.27;1.03;;;0.60;97.20;1.00;95790.00;;;;5114641;28;20450;-84
2022/02/22 00:07:53;;;;;;;1.50;1.40;;;-0.10;97.30;1.00;95786.00;;;;5126453;27;20424;-85
2022/02/22 00:10:42;;;;;;;2.83;2.00;;;0.50;97.70;0.90;95804.00;;;;5111660;28;20437;-84
2022/02/22 00:13:31;;;;;;;1.27;1.13;;;0.50;98.00;0.70;95803.00;;;;5118090;28;20908;-85
2022/02/22 00:16:21;;;;;;;1.60;0.90;;;0.40;98.50;0.60;95790.00;;;;5116410;28;20450;-85
2022/02/22 00:19:10;;;;;;;1.10;1.10;;;0.30;98.50;0.70;95799.00;;;;5113528;28;20428;-85
2022/02/22 00:21:59;;;;;;;1.87;1.40;;;0.30;98.70;0.90;95793.00;;;;5113698;28;20440;-84
2022/02/22 00:24:48;;;;;;;3.73;1.30;;;0.50;98.80;0.80;95803.00;;;;5112674;28;20919;-84
2022/02/22 00:27:37;;;;;;;1.83;1.30;;;0.30;99.20;1.00;95808.00;;;;5105531;28;20425;-83
2022/02/22 00:30:26;;;;;;;2.23;1.20;;;0.30;99.20;0.80;95801.00;;;;5111586;28;20428;-84
2022/02/22 00:33:17;;;;;;;0.87;0.87;;;0.30;99.30;0.90;95808.00;;;;5105941;28;20471;-83
2022/02/22 00:36:06;;;;;;;1.47;1.13;;;0.30;99.60;0.70;95806.00;;;;5115991;27;20452;-84
2022/02/22 00:38:55;;;;;;;1.33;0.90;;;0.30;99.90;0.20;95822.00;;;;5118353;28;20472;-84
2022/02/22 00:41:44;;;;;;;5.30;1.40;;;0.20;99.90;0.50;95832.00;;;;5118998;28;20436;-85
2022/02/22 00:44:33;;;;;;;1.33;1.10;;;0.20;99.90;1.00;95828.00;;;;5116966;28;20452;-84
2022/02/22 00:47:22;;;;;;;1.47;0.63;;;0.30;99.90;0.90;95838.00;;;;5112892;28;20438;-83
2022/02/22 00:50:14;;;;;;;2.77;1.63;;;0.30;99.90;0.80;95844.00;;;;5108500;28;20607;-84
2022/02/22 00:53:03;;;;;;;1.40;0.60;;;0.30;99.90;0.40;95846.00;;;;5114213;28;20443;-84
2022/02/22 00:55:52;;;;;;;3.80;1.10;;;0.30;99.90;0.60;95842.00;;;;5118042;28;20460;-84
2022/02/22 00:58:40;;;;;;;1.10;1.00;;;0.30;99.90;0.90;95849.00;;;;5106929;28;20460;-85
2022/02/22 01:01:29;;;;;;;1.30;1.00;;;0.30;99.90;1.10;95853.00;;;;5112349;28;20432;-83
2022/02/22 01:04:18;;;;;;;1.20;1.10;;;0.40;99.90;0.60;95861.00;;;;5112581;28;20417;-84
2022/02/22 01:07:16;;;;;;;1.00;1.00;;;0.40;99.90;0.90;95880.00;;;;5124048;28;20408;-84
2022/02/22 01:10:06;;;;;;;0.63;0.63;;;0.30;99.90;0.80;95882.00;;;;5112738;28;20869;-85
2022/02/22 01:12:55;;;;;;;1.50;1.10;;;0.40;99.90;1.00;95881.00;;;;5120216;28;20443;-84
2022/02/22 01:15:44;;;;;;;1.20;1.10;;;0.30;99.90;0.70;95875.00;;;;5121531;28;20800;-84
2022/02/22 01:18:33;;;;;;;0.83;0.80;;;0.30;99.90;0.30;95881.00;;;;5119515;28;20483;-85
2022/02/22 01:21:21;;;;;;;0.63;0.60;;;0.30;99.90;0.20;95893.00;;;;5122164;27;20477;-83
2022/02/22 01:24:12;;;;;;;2.57;1.00;;;0.20;99.90;0.80;95891.00;;;;5129965;27;20933;-84
2022/02/22 01:27:01;;;;;;;0.77;0.77;;;0.20;99.90;0.40;95897.00;;;;5119666;28;20424;-84
2022/02/22 01:29:49;;;;;;;1.90;1.10;;;0.20;99.90;0.00;95914.00;;;;5117598;28;20978;-84
2022/02/22 01:32:38;;;;;;;0.93;0.93;;;0.30;99.90;0.40;95918.00;;;;5116719;28;20841;-84
2022/02/22 01:35:27;;;;;;;0.83;0.77;;;0.10;99.90;0.70;95916.00;;;;5117575;28;20448;-85
2022/02/22 01:38:16;;;;;;;1.60;1.50;;;0.30;99.90;1.10;95935.00;;;;5118448;28;20456;-85
2022/02/22 01:41:07;;;;;;;2.33;0.97;;;0.40;99.90;1.10;95929.00;;;;5107900;28;20426;-83
2022/02/22 01:43:56;;;;;;;2.20;0.80;;;0.30;99.90;1.10;95928.00;;;;5117266;28;20817;-83
2022/02/22 01:46:56;;;;;;;0.63;0.60;;;0.30;99.90;0.70;95933.00;;;;5117420;28;20424;-85
2022/02/22 01:49:46;;;;;;;1.50;1.00;;;0.50;99.90;1.20;95936.00;;;;5123350;27;20419;-84
2022/02/22 01:52:35;;;;;;;0.77;0.60;;;0.50;99.90;1.30;95942.00;;;;5115077;28;20451;-85
2022/02/22 01:55:24;;;;;;;0.83;0.83;;;0.60;99.90;1.70;95945.00;;;;5117395;28;20491;-85
2022/02/22 01:58:15;;;;;;;0.80;0.80;;;0.70;99.90;1.50;95948.00;;;;5116602;27;20464;-84
2022/02/22 02:01:04;;;;;;;0.60;0.60;;;0.80;99.90;1.00;95939.00;;;;5128907;27;20420;-84
2022/02/22 02:03:54;;;;;;;3.23;1.03;;;0.80;99.90;1.20;95956.00;;;;5115184;28;20425;-83
2022/02/22 02:06:43;;;;;;;1.07;0.90;;;0.80;99.90;1.20;95937.00;;;;5116478;28;20416;-84
2022/02/22 02:09:34;;;;;;;0.53;0.40;;;0.70;99.90;0.30;95927.00;;;;5116171;28;20444;-83
2022/02/22 02:12:23;;;;;;;2.53;1.30;;;0.70;99.90;0.50;95932.00;;;;5100748;28;20426;-85
2022/02/22 02:15:13;;;;;;;1.03;0.97;;;0.60;99.90;0.30;95936.00;;;;5114896;28;20441;-84
2022/02/22 02:18:02;;;;;;;1.80;0.77;;;0.50;99.90;0.70;95942.00;;;;5113843;28;20723;-83
2022/02/22 02:20:50;;;;;;;0.80;0.73;;;0.40;99.90;0.60;95935.00;;;;5113651;28;20425;-82
2022/02/22 02:23:41;;;;;;;1.50;1.03;;;0.40;99.90;0.70;95942.00;;;;5113488;28;20439;-84
2022/02/22 02:26:29;;;;;;;1.10;1.10;;;0.40;99.90;1.10;95963.00;;;;5115344;28;20858;-84
2022/02/22 02:29:21;;;;;;;0.60;0.60;;;0.50;99.90;1.10;95961.00;;;;5116141;28;20421;-84
2022/02/22 02:32:10;;;;;;;1.03;1.00;;;0.50;99.90;0.70;95964.00;;;;5116484;28;20424;-85
2022/02/22 02:34:59;;;;;;;4.20;0.87;;;0.60;99.90;0.80;95965.00;;;;5115385;28;20449;-84
2022/02/22 02:37:48;;;;;;;1.47;1.10;;;0.40;99.90;0.80;95973.00;;;;5115346;28;20416;-84
2022/02/22 02:40:57;;;;;;;1.00;0.70;;;0.30;99.90;0.80;95977.00;;;;5114568;28;20421;-83
2022/02/22 02:43:45;;;;;;;3.10;0.93;;;0.40;99.90;1.00;95980.00;;;;5112610;28;20421;-83
2022/02/22 02:46:35;;;;;;;3.23;1.30;;;0.40;99.90;1.00;95978.00;;;;5114050;28;20445;-83
2022/02/22 02:49:24;;;;;;;1.03;0.97;;;0.40;99.90;0.90;95982.00;;;;5130543;27;20427;-84
2022/02/22 02:52:13;;;;;;;2.30;1.20;;;0.40;99.90;0.80;95981.00;;;;5102380;28;20424;-84
2022/02/22 02:55:02;;;;;;;0.63;0.63;;;0.40;99.90;0.30;95963.00;;;;5114536;28;20459;-84
2022/02/22 02:57:52;;;;;;;1.10;1.00;;;0.50;99.90;0.60;95959.00;;;;5113221;28;20440;-84
2022/02/22 03:00:41;;;;;;;1.50;1.00;;;0.30;99.90;0.90;95967.00;;;;5111630;27;20793;-84
2022/02/22 03:03:30;;;;;;;0.73;0.70;;;0.40;99.90;0.60;95971.00;;;;5102456;28;20454;-84
2022/02/22 03:06:19;;;;;;;3.20;1.00;;;0.40;99.90;1.00;95976.00;;;;5114310;28;20444;-84
2022/02/22 03:09:08;;;;;;;9.87;1.07;;;0.40;99.90;1.00;95992.00;;;;5112972;28;20776;-84
2022/02/22 03:11:56;;;;;;;1.07;0.87;;;0.40;99.90;1.00;95995.00;;;;5113967;28;20462;-82
2022/02/22 03:14:48;;;;;;;1.30;1.20;;;0.50;99.90;0.80;96013.00;;;;5115031;28;20971;-83
2022/02/22 03:17:37;;;;;;;1.60;0.70;;;0.40;99.90;0.70;96005.00;;;;5115125;28;20443;-84
2022/02/22 03:20:26;;;;;;;0.73;0.70;;;0.40;99.90;0.80;96012.00;;;;5116072;28;20983;-83
2022/02/22 03:23:16;;;;;;;0.70;0.70;;;0.30;99.90;0.80;96020.00;;;;5114442;28;20436;-84
2022/02/22 03:26:05;;;;;;;1.47;1.37;;;0.40;99.90;0.70;96011.00;;;;5115416;28;20437;-84
2022/02/22 03:28:58;;;;;;;2.20;1.07;;;0.30;99.90;0.70;96025.00;;;;5111192;28;20429;-84
2022/02/22 03:31:48;;;;;;;1.73;1.63;;;0.20;99.90;0.60;96030.00;;;;5109620;28;20428;-84
2022/02/22 03:34:37;;;;;;;1.63;0.87;;;0.30;99.90;0.40;96043.00;;;;5115185;28;20448;-84
2022/02/22 03:37:26;;;;;;;1.37;0.90;;;0.10;99.90;0.70;96052.00;;;;5115131;28;20428;-84
2022/02/22 03:40:15;;;;;;;0.70;0.70;;;0.10;99.90;0.60;96035.00;;;;5114694;28;20479;-84
2022/02/22 03:43:04;;;;;;;3.03;1.50;;;0.10;99.90;0.60;96050.00;;;;5113687;28;20433;-85
2022/02/22 03:45:53;;;;;;;3.60;1.23;;;0.10;99.90;0.70;96057.00;;;;5115665;27;20830;-86
2022/02/22 03:48:43;;;;;;;0.60;0.60;;;0.00;99.90;0.30;96048.00;;;;5097678;28;20433;-84
2022/02/22 03:51:32;;;;;;;0.80;0.63;;;0.10;99.90;0.40;96043.00;;;;5114791;28;20417;-84
2022/02/22 03:54:21;;;;;;;1.00;0.80;;;0.00;99.90;0.80;96047.00;;;;5114857;28;20413;-84
2022/02/22 03:57:09;;;;;;;1.03;0.90;;;0.10;99.90;0.70;96036.00;;;;5116120;28;20451;-84
2022/02/22 03:59:58;;;;;;;2.70;0.83;;;0.30;99.90;0.50;96039.00;;;;5124693;27;20461;-83
2022/02/22 04:02:48;;;;;;;0.60;0.60;;;0.10;99.90;0.30;96056.00;;;;5110736;28;20420;-84
2022/02/22 04:05:38;;;;;;;0.83;0.83;;;0.10;99.90;0.60;96055.00;;;;5116281;28;20447;-84
2022/02/22 04:08:27;;;;;;;2.03;1.17;;;0.00;99.90;0.80;96063.00;;;;5125502;27;20420;-84
2022/02/22 04:11:16;;;;;;;1.53;0.60;;;0.10;99.90;1.00;96068.00;;;;5115879;28;20417;-84
2022/02/22 04:14:07;;;;;;;1.10;1.00;;;0.20;99.90;1.10;96066.00;;;;5111055;28;21004;-85
2022/02/22 04:16:56;;;;;;;1.43;0.70;;;0.30;99.90;1.30;96071.00;;;;5117778;28;20421;-84
2022/02/22 04:19:45;;;;;;;3.00;1.27;;;0.40;99.90;0.90;96066.00;;;;5122770;28;20809;-83
2022/02/22 04:22:35;;;;;;;1.07;0.93;;;0.40;99.90;0.50;96079.00;;;;5125007;28;20444;-85
2022/02/22 04:25:24;;;;;;;1.10;0.70;;;0.30;99.90;0.90;96090.00;;;;5118726;28;20448;-84
2022/02/22 04:28:13;;;;;;;0.83;0.70;;;0.40;99.90;1.10;96094.00;;;;5122248;28;20443;-83
2022/02/22 04:31:02;;;;;;;0.77;0.60;;;0.40;99.90;1.00;96088.00;;;;5120499;28;20918;-85
2022/02/22 04:33:50;;;;;;;1.63;1.30;;;0.40;99.90;1.20;96084.00;;;;5113636;28;20826;-84
2022/02/22 04:36:39;;;;;;;1.27;1.03;;;0.40;99.90;1.40;96089.00;;;;5126820;28;20818;-83
2022/02/22 04:39:29;;;;;;;1.00;0.90;;;0.40;99.90;1.50;96095.00;;;;5115331;28;20529;-85
2022/02/22 04:42:19;;;;;;;8.00;1.53;;;0.60;99.90;1.10;96104.00;;;;5113855;28;20424;-83
2022/02/22 04:45:09;;;;;;;0.63;0.60;;;0.60;99.90;1.40;96105.00;;;;5122196;28;20520;-84
2022/02/22 04:47:58;;;;;;;0.70;0.70;;;0.60;99.90;1.50;96117.00;;;;5115524;28;20435;-83
2022/02/22 04:50:46;;;;;;;3.80;1.53;;;0.70;99.90;1.60;96124.00;;;;5117292;28;20420;-83
2022/02/22 04:53:35;;;;;;;0.70;0.70;;;1.00;99.90;1.50;96117.00;;;;5112443;28;20433;-84
2022/02/22 04:56:25;;;;;;;1.30;1.20;;;0.90;99.90;1.50;96125.00;;;;5114774;28;20463;-85
2022/02/22 04:59:14;;;;;;;1.03;1.00;;;0.80;99.90;1.40;96136.00;;;;5118046;28;20506;-84
2022/02/22 05:02:04;;;;;;;0.73;0.73;;;0.80;99.90;1.40;96128.00;;;;5131868;28;20431;-85
2022/02/22 05:04:52;;;;;;;1.77;0.70;;;0.80;99.90;1.50;96130.00;;;;5111310;28;20482;-85
2022/02/22 05:07:41;;;;;;;1.50;0.80;;;0.80;99.90;1.60;96133.00;;;;5116748;28;20437;-85
2022/02/22 05:10:30;;;;;;;5.87;0.80;;;0.80;99.90;1.80;96126.00;;;;5116663;28;20428;-83
2022/02/22 05:13:20;;;;;;;0.83;0.83;;;0.80;99.90;1.80;96154.00;;;;5109454;28;20799;-82
2022/02/22 05:16:09;;;;;;;1.43;1.00;;;0.90;99.90;1.90;96160.00;;;;5108966;28;20440;-82
2022/02/22 05:18:58;;;;;;;0.60;0.60;;;0.90;99.90;1.80;96159.00;;;;5109445;28;20425;-83
2022/02/22 05:21:47;;;;;;;0.77;0.57;;;1.00;99.90;1.60;96160.00;;;;5112193;28;20800;-84
2022/02/22 05:24:36;;;;;;;0.93;0.73;;;1.00;99.90;1.80;96179.00;;;;5101955;28;20448;-84
2022/02/22 05:27:26;;;;;;;0.73;0.73;;;1.00;99.90;1.80;96180.00;;;;5109655;28;20425;-83
2022/02/22 05:30:18;;;;;;;0.60;0.60;;;1.00;99.90;1.60;96174.00;;;;5100280;28;20512;-84
2022/02/22 05:33:07;;;;;;;0.87;0.50;;;1.00;99.90;1.60;96181.00;;;;5097089;28;20503;-83
2022/02/22 05:35:56;;;;;;;0.97;0.87;;;1.00;99.90;1.90;96198.00;;;;5107207;27;20458;-83
2022/02/22 05:38:45;;;;;;;0.60;0.60;;;1.00;99.90;2.00;96196.00;;;;5114638;27;20436;-84
2022/02/22 05:41:34;;;;;;;3.13;0.83;;;1.10;99.90;2.00;96204.00;;;;5112024;28;20547;-83
2022/02/22 05:44:23;;;;;;;1.27;0.97;;;1.10;99.90;2.00;96208.00;;;;5111946;28;20424;-83
2022/02/22 05:47:13;;;;;;;0.50;0.50;;;1.20;99.90;2.00;96232.00;;;;5112329;28;20529;-83
2022/02/22 05:50:02;;;;;;;0.70;0.70;;;1.20;99.90;2.00;96242.00;;;;5112762;28;20432;-84
2022/02/22 05:52:52;;;;;;;1.17;0.60;;;1.20;99.90;2.10;96240.00;;;;5111022;28;20439;-83
2022/02/22 05:55:41;;;;;;;1.17;0.60;;;1.30;99.90;1.70;96232.00;;;;5113059;28;20452;-83
2022/02/22 05:58:30;;;;;;;0.80;0.73;;;1.20;99.90;1.70;96235.00;;;;5130551;27;20467;-83
2022/02/22 06:01:19;;;;;;;0.90;0.80;;;1.20;99.90;2.00;96232.00;;;;5128460;27;20464;-85
2022/02/22 06:04:09;;;;;;;1.10;0.73;;;1.20;99.90;2.00;96249.00;;;;5122312;27;20435;-83
2022/02/22 06:06:58;;;;;;;0.90;0.90;;;1.20;99.90;1.80;96241.00;;;;5123490;27;20794;-83
2022/02/22 06:09:46;;;;;;;1.70;0.63;;;1.20;99.90;1.60;96251.00;;;;5124615;27;20424;-83
2022/02/22 06:12:35;;;;;;;0.70;0.70;;;1.20;99.90;1.80;96257.00;;;;5123724;27;20428;-83
2022/02/22 06:15:24;;;;;;;0.77;0.77;;;1.10;99.90;2.10;96263.00;;;;5125464;27;20459;-84
2022/02/22 06:18:15;;;;;;;1.07;1.00;;;1.20;99.90;2.10;96264.00;;;;5115539;27;20432;-84
2022/02/22 06:21:06;;;;;;;1.33;1.23;;;1.20;99.90;2.00;96273.00;;;;5119008;27;20543;-84
2022/02/22 06:23:55;;;;;;;1.20;1.10;;;1.20;99.90;1.80;96267.00;;;;5115432;27;20428;-83
2022/02/22 06:26:43;;;;;;;1.60;1.50;;;1.30;99.90;1.70;96270.00;;;;5125340;27;20985;-83
2022/02/22 06:29:33;;;;;;;1.20;1.20;;;1.30;99.90;1.50;96252.00;;;;5129023;27;20427;-84
2022/02/22 06:32:22;;;;;;;1.23;1.13;;;1.30;99.90;1.80;96268.00;;;;5116618;27;20439;-83
2022/02/22 06:35:11;;;;;;;1.43;1.10;;;1.30;99.90;2.30;96275.00;;;;5123556;27;20449;-84
2022/02/22 06:38:01;;;;;;;3.10;1.53;;;1.40;99.90;2.50;96293.00;;;;5130825;27;20438;-83
2022/02/22 06:40:50;;;;;;;4.20;1.80;;;1.50;99.90;2.90;96289.00;;;;5131890;27;20452;-83
2022/02/22 06:43:39;;;;;;;2.33;2.13;;;1.70;99.90;3.10;96294.00;;;;5123769;27;20429;-83
2022/02/22 06:46:28;;;;;;;3.70;1.83;;;1.90;99.90;3.00;96294.00;;;;5117181;27;20811;-83
2022/02/22 06:49:16;;;;;;;1.53;1.33;;;2.00;99.90;3.30;96301.00;;;;5123846;27;20438;-83
2022/02/22 06:52:06;;;;;;;1.73;1.50;;;2.20;99.90;3.40;96310.00;;;;5102619;28;20621;-84
2022/02/22 06:54:56;;;;;;;2.87;1.10;;;2.30;99.90;3.00;96305.00;;;;5115884;27;20436;-84
2022/02/22 06:57:52;;;;;;;0.87;0.87;;;2.40;99.90;3.00;96308.00;;;;5116562;27;20447;-83
2022/02/22 07:00:43;;;;;;;2.77;0.97;;;2.40;99.90;2.90;96312.00;;;;5128998;27;20482;-83
2022/02/22 07:03:32;;;;;;;1.10;1.10;;;2.40;99.90;3.40;96311.00;;;;5117624;27;20452;-83
2022/02/22 07:06:21;;;;;;;1.37;1.27;;;2.40;99.90;3.20;96316.00;;;;5126763;27;20444;-83
2022/02/22 07:09:10;;;;;;;1.97;1.37;;;2.50;99.90;3.30;96337.00;;;;5097491;28;20429;-83
2022/02/22 07:11:58;;;;;;;2.20;1.07;;;2.50;99.90;3.50;96344.00;;;;5101503;28;20421;-83
2022/02/22 07:14:49;;;;;;;1.60;1.20;;;2.50;99.90;3.50;96363.00;;;;5103379;28;20813;-83
2022/02/22 07:17:46;;;;;;;2.53;1.07;;;2.60;99.90;3.30;96376.00;;;;5107187;28;20431;-83
2022/02/22 07:20:36;;;;;;;0.90;0.90;;;2.60;99.90;3.20;96380.00;;;;5099537;28;20461;-83
2022/02/22 07:23:24;;;;;;;0.90;0.90;;;2.60;99.90;3.30;96376.00;;;;5113564;27;20437;-83
2022/02/22 07:26:13;;;;;;;1.40;1.30;;;2.60;99.90;3.40;96378.00;;;;5114309;27;20438;-83
2022/02/22 07:29:02;;;;;;;1.10;1.00;;;2.60;99.90;3.80;96380.00;;;;5127075;27;20436;-84
2022/02/22 07:31:53;;;;;;;1.53;1.20;;;2.80;99.90;4.10;96378.00;;;;5122454;27;20821;-84
2022/02/22 07:34:43;;;;;;;1.27;1.17;;;2.90;99.90;4.20;96389.00;;;;5111572;28;20883;-84
2022/02/22 07:37:36;;;;;;;2.50;1.50;;;3.10;99.90;4.30;96379.00;;;;5102634;28;20922;-85
2022/02/22 07:40:26;;;;;;;5.77;4.17;;;3.20;99.90;4.30;96403.00;;;;5112343;27;20635;-83
2022/02/22 07:43:15;;;;;;;5.50;4.07;;;3.40;99.90;4.40;96395.00;;;;5111784;28;20421;-83
2022/02/22 07:46:04;;;;;;;3.73;1.40;;;3.50;99.90;4.60;96401.00;;;;5111538;28;20526;-84
2022/02/22 07:48:54;;;;;;;0.90;0.60;;;3.60;99.90;4.90;96414.00;;;;5112585;28;20413;-84
2022/02/22 07:51:44;;;;;;;0.50;0.50;;;3.70;99.90;4.90;96422.00;;;;5105498;28;20933;-84
2022/02/22 07:54:33;;;;;;;0.60;0.60;;;3.80;99.90;4.80;96412.00;;;;5096060;28;21208;-84
2022/02/22 07:57:22;;;;;;;1.70;1.00;;;3.90;99.90;5.40;96414.00;;;;5113150;27;20448;-84
2022/02/22 08:00:13;;;;;;;1.97;1.10;;;4.10;99.90;5.70;96430.00;;;;5108241;28;20414;-83
2022/02/22 08:03:04;;;;;;;1.07;0.97;;;4.20;99.90;5.70;96437.00;;;;5102590;28;20421;-84
2022/02/22 08:05:54;;;;;;;1.37;0.90;;;4.40;99.90;5.30;96420.00;;;;5106382;28;20232;-84
2022/02/22 08:08:43;;;;;;;0.60;0.60;;;4.50;99.90;5.70;96436.00;;;;5111508;28;20667;-84
2022/02/22 08:11:34;;;;;;;0.97;0.80;;;4.60;99.90;5.70;96431.00;;;;5112163;28;20214;-84
2022/02/22 08:14:22;;;;;;;0.60;0.60;;;4.70;99.90;6.10;96433.00;;;;5111733;28;20210;-84
2022/02/22 08:17:12;;;;;;;0.83;0.70;;;4.80;99.90;6.30;96433.00;;;;5113153;28;20827;-84
2022/02/22 08:20:00;;;;;;;0.70;0.70;;;5.00;99.90;6.80;96439.00;;;;5113441;28;20213;-84
2022/02/22 08:22:53;;;;;;;0.60;0.60;;;5.20;99.90;7.20;96444.00;;;;5107291;28;20623;-83
2022/02/22 08:25:43;;;;;;;0.93;0.70;;;5.40;99.90;7.60;96445.00;;;;5102814;28;20303;-84
2022/02/22 08:28:32;;;;;;;1.10;0.70;;;5.70;99.90;7.90;96452.00;;;;5103703;28;20203;-84
2022/02/22 08:31:21;;;;;;;2.70;0.50;;;6.10;99.90;8.10;96450.00;;;;5105291;28;20206;-84
2022/02/22 08:34:09;;;;;;;7.93;1.53;;;6.40;99.90;8.30;96459.00;;;;5099148;28;20255;-84
2022/02/22 08:36:58;;;;;;;1.37;0.70;;;6.60;99.90;8.00;96461.00;;;;5112632;28;20536;-84
2022/02/22 08:39:49;;;;;;;1.10;0.93;;;6.80;99.90;8.20;96460.00;;;;5110659;28;20199;-83
2022/02/22 08:42:37;;;;;;;1.00;0.67;;;6.90;99.90;8.00;96471.00;;;;5113744;28;20240;-84
2022/02/22 08:45:37;;;;;;;1.17;0.50;;;6.90;99.90;7.70;96460.00;;;;5119084;28;20727;-83
2022/02/22 08:48:26;;;;;;;0.80;0.43;;;6.90;99.90;8.00;96484.00;;;;5128861;28;20194;-83
2022/02/22 08:51:16;;;;;;;1.43;0.77;;;6.90;99.90;7.70;96496.00;;;;5118350;28;20447;-83
2022/02/22 08:54:07;;;;;;;0.40;0.40;;;6.90;99.90;8.00;96473.00;;;;5128746;28;20202;-84
2022/02/22 08:56:57;;;;;;;0.60;0.50;;;6.80;99.90;7.90;96473.00;;;;5130309;27;20590;-83
2022/02/22 08:59:46;;;;;;;0.30;0.30;;;6.80;99.90;7.60;96496.00;;;;5132398;27;20198;-83
2022/02/22 09:02:35;;;;;;;0.20;0.20;;;6.80;99.90;7.50;96488.00;;;;5130696;27;20217;-85
2022/02/22 09:05:25;;;;;;;0.30;0.30;;;6.80;99.90;7.00;96474.00;;;;5123632;27;20228;-85
2022/02/22 09:08:15;;;;;;;5.07;0.50;;;6.80;96.90;7.60;96510.00;;;;5121759;27;20255;-83
2022/02/22 09:11:04;;;;;;;3.07;0.47;;;6.80;96.50;7.50;96508.00;;;;5130460;27;20205;-84
2022/02/22 09:13:55;;;;;;;0.23;0.23;;;6.90;95.10;7.20;96513.00;;;;5126819;27;20238;-85
2022/02/22 09:16:43;;;;;;;0.40;0.40;;;6.90;92.30;7.80;96514.00;;;;5126108;27;20584;-83
2022/02/22 09:19:32;;;;;;;0.90;0.40;;;7.00;92.70;8.30;96509.00;;;;5133617;27;20206;-83
2022/02/22 09:22:21;;;;;;;0.60;0.50;;;7.10;91.50;8.00;96532.00;;;;5133172;27;20228;-85
2022/02/22 09:25:13;;;;;;;0.70;0.30;;;7.30;91.00;7.50;96518.00;;;;5135573;27;20249;-84
2022/02/22 09:28:06;;;;;;;0.43;0.40;;;7.30;86.30;8.90;96518.00;;;;5132680;27;20206;-82
2022/02/22 09:30:56;;;;;;;2.73;0.50;;;7.40;88.30;9.60;96525.00;;;;5111994;27;20209;-84
2022/02/22 09:33:46;;;;;;;0.30;0.30;;;7.70;88.50;8.30;96536.00;;;;5129735;27;20337;-85
2022/02/22 09:36:35;;;;;;;0.40;0.40;;;7.90;81.60;8.50;96535.00;;;;5130683;27;20221;-85
2022/02/22 09:39:24;;;;;;;0.40;0.40;;;8.00;77.90;9.80;96552.00;;;;5123009;27;20186;-83
2022/02/22 09:42:13;;;;;;;0.60;0.40;;;8.10;80.30;10.00;96565.00;;;;5118890;27;20699;-84
2022/02/22 09:45:05;;;;;;;0.20;0.20;;;8.40;77.20;9.90;96572.00;;;;5130365;27;20221;-82
2022/02/22 09:47:57;;;;;;;0.50;0.50;;;8.60;75.50;9.80;96534.00;;;;5130919;27;20229;-82
2022/02/22 09:50:49;;;;;;;0.60;0.40;;;8.70;79.80;10.40;96506.00;;;;5131527;27;20202;-83
2022/02/22 09:53:40;;;;;;;0.43;0.30;;;8.90;82.90;10.20;96542.00;;;;5124373;27;20206;-84
2022/02/22 09:56:29;;;;;;;0.30;0.30;;;9.00;73.20;10.20;96534.00;;;;5118222;27;20218;-82
2022/02/22 09:59:21;;;;;;;0.30;0.30;;;9.20;71.30;10.40;96536.00;;;;5122570;27;20210;-82
2022/02/22 10:02:09;;;;;;;0.30;0.30;;;9.30;69.00;11.20;96550.00;;;;5127487;27;20717;-82
2022/02/22 10:05:00;;;;;;;1.33;0.30;;;9.50;70.50;11.80;96546.00;;;;5128046;27;20701;-82
2022/02/22 10:07:53;;;;;;;1.73;0.60;;;9.80;71.10;11.90;96548.00;;;;5129647;27;20205;-82
2022/02/22 10:10:43;;;;;;;0.50;0.30;;;10.00;72.30;11.80;96563.00;;;;5131102;27;20194;-83
2022/02/22 10:13:33;;;;;;;1.03;0.43;;;10.30;70.60;11.50;96541.00;;;;5130774;27;20210;-83
2022/02/22 10:16:22;;;;;;;0.40;0.40;;;10.40;63.70;11.20;96545.00;;;;5136617;27;20205;-83
2022/02/22 10:19:20;;;;;;;1.07;0.43;;;10.40;58.80;11.20;96538.00;;;;5151925;27;20205;-82
2022/02/22 10:22:11;;;;;;;0.80;0.33;;;10.30;59.10;10.10;96535.00;;;;5133049;27;20228;-84
2022/02/22 10:25:05;;;;;;;0.27;0.27;;;10.10;57.80;10.80;96541.00;;;;5133924;27;20218;-84
2022/02/22 10:27:58;;;;;;;0.60;0.50;;;10.00;58.00;10.50;96532.00;;;;5133318;27;20626;-87
2022/02/22 10:30:50;;;;;;;0.50;0.47;;;10.00;58.10;10.20;96541.00;;;;5120700;27;20202;-84
2022/02/22 10:33:44;;;;;;;0.60;0.40;;;10.00;57.40;10.80;96544.00;;;;5125027;27;20194;-87
2022/02/22 10:36:50;;;;;;;0.40;0.40;;;10.00;58.10;9.80;96540.00;;;;5127188;27;20196;-89
2022/02/22 10:39:40;;;;;;;0.93;0.50;;;9.90;56.90;11.30;96545.00;;;;5145120;27;20191;-84
2022/02/22 10:42:36;;;;;;;0.67;0.43;;;10.00;58.30;11.70;96551.00;;;;5125871;27;20287;-83
2022/02/22 10:45:26;;;;;;;1.60;0.30;;;10.30;58.70;11.10;96540.00;;;;5125462;27;20309;-88
2022/02/22 10:48:30;;;;;;;2.50;1.00;;;10.40;56.50;12.20;96536.00;;;;5114971;27;20547;-83
2022/02/22 10:51:19;;;;;;;0.57;0.57;;;10.60;57.60;11.70;96549.00;;;;5120013;27;20209;-83
2022/02/22 10:54:08;;;;;;;0.97;0.50;;;10.80;56.20;12.50;96569.00;;;;5130795;27;20205;-83
2022/02/22 10:56:58;;;;;;;0.30;0.30;;;11.10;55.90;12.20;96537.00;;;;5127278;27;20206;-85
2022/02/22 10:59:48;;;;;;;1.70;0.40;;;11.50;55.00;13.30;96558.00;;;;5129510;27;20792;-84
2022/02/22 11:02:37;;;;;;;0.40;0.30;;;11.70;55.20;13.00;96544.00;;;;5130927;27;20229;-84
2022/02/22 11:05:37;;;;;;;0.37;0.30;;;12.10;54.70;13.00;96550.00;;;;5127122;27;20226;-83
2022/02/22 11:08:28;;;;;;;0.87;0.40;;;12.40;53.10;13.20;96562.00;;;;5124093;27;20210;-84
2022/02/22 11:11:24;;;;;;;0.53;0.30;;;12.50;53.40;12.60;96566.00;;;;5128453;27;20204;-84
2022/02/22 11:14:26;;;;;;;0.30;0.30;;;12.70;51.90;13.20;96573.00;;;;5129986;27;20721;-85
2022/02/22 11:17:18;;;;;;;0.47;0.30;;;12.80;52.20;13.90;96566.00;;;;5126470;27;20194;-83
2022/02/22 11:20:15;;;;;;;0.40;0.40;;;13.00;52.10;15.00;96601.00;;;;5124772;27;20222;-85
2022/02/22 11:23:09;;;;;;;1.43;0.40;;;13.40;53.00;14.20;96581.00;;;;5122936;27;20262;-84
2022/02/22 11:26:11;;;;;;;1.80;1.63;;;13.40;52.30;14.20;96593.00;;;;5126989;27;20229;-84
2022/02/22 11:29:02;;;;;;;1.17;1.07;;;13.40;51.90;14.50;96595.00;;;;5128274;27;20209;-90
2022/02/22 11:32:02;;;;;;;1.60;0.57;;;13.60;51.90;14.40;96597.00;;;;5130578;27;20190;-84
2022/02/22 11:34:51;;;;;;;1.40;0.60;;;13.40;52.00;13.00;96591.00;;;;5138187;27;20218;-85
2022/02/22 11:37:40;;;;;;;1.60;0.73;;;13.20;51.00;13.60;96600.00;;;;5134722;27;20674;-84
2022/02/22 11:40:32;;;;;;;1.83;0.50;;;13.20;51.70;14.10;96598.00;;;;5124932;27;20198;-84
2022/02/22 11:43:33;;;;;;;0.40;0.40;;;13.30;51.10;13.60;96613.00;;;;5127766;27;20206;-83
2022/02/22 11:46:34;;;;;;;0.50;0.40;;;13.30;50.90;13.70;96607.00;;;;5128086;27;20224;-84
2022/02/22 11:49:27;;;;;;;0.40;0.40;;;13.10;50.30;13.30;96607.00;;;;5129733;27;20201;-85
2022/02/22 11:52:39;;;;;;;1.30;0.40;;;13.20;50.30;13.90;96610.00;;;;5123374;27;20201;-85
2022/02/22 11:55:28;;;;;;;0.97;0.77;;;13.40;50.20;12.00;96608.00;;;;5128332;27;20228;-84
2022/02/22 11:58:22;;;;;;;0.67;0.40;;;13.70;48.10;13.40;96618.00;;;;5126309;27;20205;-85
2022/02/22 12:01:20;;;;;;;1.60;0.77;;;13.60;48.60;14.40;96617.00;;;;5123905;27;20205;-84
2022/02/22 12:04:21;;;;;;;1.10;1.10;;;13.50;49.90;13.10;96690.00;;;;5126684;27;20202;-83
2022/02/22 12:07:11;;;;;;;0.90;0.43;;;13.40;49.00;11.30;96650.00;;;;5129842;27;20370;-85
2022/02/22 12:10:06;;;;;;;0.40;0.40;;;12.60;49.50;13.20;96647.00;;;;5115664;27;20592;-84
2022/02/22 12:13:07;;;;;;;0.80;0.40;;;12.60;50.70;12.40;96638.00;;;;5119019;27;20222;-84
2022/02/22 12:15:56;;;;;;;0.40;0.40;;;12.80;50.50;11.20;96653.00;;;;5129969;27;20222;-80
2022/02/22 12:18:46;;;;;;;0.70;0.50;;;12.70;50.30;12.30;96697.00;;;;5129641;27;20205;-84
2022/02/22 12:21:35;;;;;;;0.97;0.50;;;12.50;50.90;13.20;96722.00;;;;5130475;27;20205;-84
2022/02/22 12:24:25;;;;;;;0.40;0.40;;;12.40;51.30;13.40;96721.00;;;;5118087;27;20213;-83
2022/02/22 12:27:15;;;;;;;0.67;0.50;;;12.40;51.60;12.20;96661.00;;;;5123307;27;20666;-84
2022/02/22 12:30:06;;;;;;;2.47;0.40;;;12.60;51.60;12.70;96728.00;;;;5129729;27;20206;-84
2022/02/22 12:32:57;;;;;;;0.53;0.30;;;12.40;51.80;13.20;96676.00;;;;5112333;28;20198;-88
2022/02/22 12:35:48;;;;;;;2.10;0.57;;;12.50;51.70;11.90;96720.00;;;;5119915;28;20227;-84
2022/02/22 12:38:36;;;;;;;0.40;0.40;;;12.30;51.70;13.00;96673.00;;;;5125971;28;20198;-83
2022/02/22 12:41:32;;;;;;;0.40;0.40;;;12.30;52.20;14.40;96679.00;;;;5109985;28;20195;-84
2022/02/22 12:44:23;;;;;;;0.73;0.40;;;12.60;52.80;15.60;96683.00;;;;5116704;28;20202;-84
2022/02/22 12:47:13;;;;;;;0.50;0.40;;;13.20;52.30;15.50;96699.00;;;;5118569;28;20724;-85
2022/02/22 12:50:02;;;;;;;0.50;0.40;;;14.10;50.40;14.40;96720.00;;;;5114029;28;20209;-82
2022/02/22 12:52:55;;;;;;;1.03;0.50;;;14.60;50.30;13.40;96753.00;;;;5117610;28;20210;-84